createdAt,value
2023-04-30T00:02:12.970Z,6.00
2023-04-30T00:04:39.542Z,6.00
2023-04-30T00:07:06.204Z,6.00
2023-04-30T00:09:32.818Z,6.00
2023-04-30T00:11:59.350Z,6.20
2023-04-30T00:14:25.956Z,6.20
2023-04-30T00:16:52.555Z,6.20
2023-04-30T00:19:19.110Z,6.10
2023-04-30T00:21:45.890Z,6.00
2023-04-30T00:24:12.450Z,6.00
2023-04-30T00:26:39.065Z,6.00
2023-04-30T00:29:06.818Z,5.90
2023-04-30T00:31:33.396Z,5.80
2023-04-30T00:33:59.984Z,6.10
2023-04-30T00:36:26.569Z,5.80
2023-04-30T00:38:53.171Z,5.80
2023-04-30T00:41:21.021Z,5.80
2023-04-30T00:43:47.578Z,5.80
2023-04-30T00:46:14.327Z,5.70
2023-04-30T00:48:40.908Z,5.70
2023-04-30T00:51:07.913Z,5.60
2023-04-30T00:53:35.203Z,5.60
2023-04-30T00:56:02.167Z,5.60
2023-04-30T00:58:29.387Z,5.60
2023-04-30T01:00:56.031Z,5.70
2023-04-30T01:03:22.968Z,5.80
2023-04-30T01:05:50.219Z,5.80
2023-04-30T01:08:17.004Z,5.90
2023-04-30T01:11:05.819Z,5.90
2023-04-30T01:13:41.200Z,6.00
2023-04-30T01:16:19.045Z,6.00
2023-04-30T01:18:54.749Z,6.10
2023-04-30T01:21:21.972Z,6.00
2023-04-30T01:23:55.567Z,6.10
2023-04-30T01:26:49.059Z,6.00
2023-04-30T01:29:18.873Z,6.00
2023-04-30T01:31:45.452Z,6.00
2023-04-30T01:34:12.143Z,6.10
2023-04-30T01:36:44.712Z,6.10
2023-04-30T01:39:34.621Z,6.20
2023-04-30T01:42:09.873Z,6.10
2023-04-30T01:44:51.161Z,6.10
2023-04-30T01:47:50.304Z,6.00
2023-04-30T01:50:24.904Z,5.90
2023-04-30T01:52:57.252Z,5.90
2023-04-30T01:55:30.233Z,6.00
2023-04-30T01:58:02.750Z,6.00
2023-04-30T02:00:33.147Z,6.10
2023-04-30T02:03:00.001Z,6.10
2023-04-30T02:05:26.769Z,6.10
2023-04-30T02:07:53.521Z,6.10
2023-04-30T02:10:23.928Z,6.10
2023-04-30T02:12:50.546Z,6.10
2023-04-30T02:15:17.196Z,6.10
2023-04-30T02:17:43.791Z,6.00
2023-04-30T02:20:11.183Z,6.00
2023-04-30T02:22:37.941Z,6.00
2023-04-30T02:25:05.060Z,6.00
2023-04-30T02:27:33.061Z,6.00
2023-04-30T02:30:00.138Z,5.90
2023-04-30T02:32:26.957Z,5.90
2023-04-30T02:34:53.653Z,5.90
2023-04-30T02:37:20.488Z,5.90
2023-04-30T02:39:47.161Z,5.80
2023-04-30T02:42:13.782Z,5.80
2023-04-30T02:44:40.392Z,5.80
2023-04-30T02:47:06.956Z,5.70
2023-04-30T02:49:33.612Z,5.60
2023-04-30T02:52:00.146Z,5.60
2023-04-30T02:54:26.740Z,5.60
2023-04-30T02:56:53.552Z,5.50
2023-04-30T02:59:20.109Z,5.40
2023-04-30T03:01:47.096Z,5.40
2023-04-30T03:04:13.729Z,5.50
2023-04-30T03:06:40.876Z,5.50
2023-04-30T03:09:08.092Z,5.50
2023-04-30T03:11:37.434Z,5.50
2023-04-30T03:14:05.435Z,5.50
2023-04-30T03:16:32.084Z,5.40
2023-04-30T03:18:58.787Z,5.30
2023-04-30T03:21:25.427Z,5.30
2023-04-30T03:23:52.052Z,5.30
2023-04-30T03:26:18.995Z,5.30
2023-04-30T03:28:45.618Z,5.30
2023-04-30T03:31:12.209Z,5.30
2023-04-30T03:33:38.946Z,5.30
2023-04-30T03:36:06.367Z,5.30
2023-04-30T03:38:32.950Z,5.30
2023-04-30T03:40:59.493Z,5.20
2023-04-30T03:43:26.064Z,5.20
2023-04-30T03:45:52.744Z,5.20
2023-04-30T03:48:19.833Z,5.20
2023-04-30T03:50:46.495Z,5.20
2023-04-30T03:53:13.091Z,5.20
2023-04-30T03:55:39.734Z,5.20
2023-04-30T03:58:06.374Z,5.10
2023-04-30T04:00:33.149Z,5.10
2023-04-30T04:02:59.893Z,5.10
2023-04-30T04:05:26.682Z,5.00
2023-04-30T04:07:53.340Z,5.10
2023-04-30T04:10:19.935Z,5.00
2023-04-30T04:12:46.633Z,5.00
2023-04-30T04:15:13.416Z,5.00
2023-04-30T04:17:40.266Z,5.00
2023-04-30T04:20:07.776Z,5.00
2023-04-30T04:22:34.487Z,5.00
2023-04-30T04:25:01.363Z,4.90
2023-04-30T04:27:28.382Z,4.90
2023-04-30T04:29:55.272Z,5.00
2023-04-30T04:32:22.697Z,5.00
2023-04-30T04:34:49.538Z,5.00
2023-04-30T04:37:17.378Z,5.10
2023-04-30T04:39:45.057Z,5.10
2023-04-30T04:42:12.022Z,5.10
2023-04-30T04:44:39.218Z,5.00
2023-04-30T04:47:06.061Z,5.00
2023-04-30T04:49:32.672Z,5.10
2023-04-30T04:51:59.537Z,5.00
2023-04-30T04:54:26.074Z,5.10
2023-04-30T04:56:52.678Z,5.10
2023-04-30T04:59:19.360Z,5.10
2023-04-30T05:01:46.093Z,5.10
2023-04-30T05:04:14.890Z,5.10
2023-04-30T05:06:42.581Z,5.10
2023-04-30T05:09:09.552Z,5.20
2023-04-30T05:11:37.900Z,5.30
2023-04-30T05:14:04.509Z,5.30
2023-04-30T05:16:31.042Z,5.30
2023-04-30T05:18:57.600Z,5.40
2023-04-30T05:21:25.992Z,5.40
2023-04-30T05:23:52.582Z,5.40
2023-04-30T05:26:20.438Z,5.50
2023-04-30T05:28:46.952Z,5.50
2023-04-30T05:31:13.552Z,5.60
2023-04-30T05:33:41.137Z,5.60
2023-04-30T05:36:07.841Z,5.70
2023-04-30T05:38:34.492Z,5.80
2023-04-30T05:41:01.035Z,5.80
2023-04-30T05:43:27.673Z,5.90
2023-04-30T05:45:54.319Z,5.90
2023-04-30T05:48:20.943Z,6.00
2023-04-30T05:50:47.551Z,6.00
2023-04-30T05:53:14.234Z,6.10
2023-04-30T05:55:40.765Z,6.10
2023-04-30T05:58:07.640Z,6.10
2023-04-30T06:00:34.213Z,6.20
2023-04-30T06:03:00.840Z,6.20
2023-04-30T06:05:27.594Z,6.20
2023-04-30T06:07:54.196Z,6.30
2023-04-30T06:10:21.147Z,6.40
2023-04-30T06:12:47.715Z,6.40
2023-04-30T06:15:14.284Z,6.50
2023-04-30T06:17:40.875Z,6.70
2023-04-30T06:20:08.170Z,6.70
2023-04-30T06:22:34.851Z,6.70
2023-04-30T06:25:01.738Z,6.80
2023-04-30T06:27:29.680Z,7.00
2023-04-30T06:29:56.548Z,6.80
2023-04-30T06:32:23.355Z,6.80
2023-04-30T06:34:49.933Z,6.90
2023-04-30T06:37:16.854Z,7.00
2023-04-30T06:39:43.459Z,7.00
2023-04-30T06:42:10.256Z,7.10
2023-04-30T06:44:36.898Z,7.20
2023-04-30T06:47:03.586Z,7.30
2023-04-30T06:49:30.388Z,7.40
2023-04-30T06:51:58.462Z,7.40
2023-04-30T06:54:26.727Z,7.30
2023-04-30T06:56:53.792Z,7.50
2023-04-30T06:59:20.831Z,7.60
2023-04-30T07:01:47.456Z,7.70
2023-04-30T07:04:14.548Z,7.70
2023-04-30T07:06:41.470Z,8.00
2023-04-30T07:09:10.669Z,8.10
2023-04-30T07:11:37.333Z,8.20
2023-04-30T07:14:04.135Z,8.30
2023-04-30T07:16:32.900Z,8.20
2023-04-30T07:19:00.138Z,8.20
2023-04-30T07:21:27.766Z,8.30
2023-04-30T07:23:56.021Z,8.30
2023-04-30T07:26:25.269Z,8.40
2023-04-30T07:28:52.574Z,8.30
2023-04-30T07:31:20.868Z,8.40
2023-04-30T07:33:48.806Z,8.50
2023-04-30T07:36:15.896Z,8.60
2023-04-30T07:38:42.566Z,8.50
2023-04-30T07:41:11.363Z,8.60
2023-04-30T07:43:38.215Z,8.70
2023-04-30T07:46:05.013Z,8.70
2023-04-30T07:48:31.726Z,8.50
2023-04-30T07:50:58.554Z,8.30
2023-04-30T07:53:27.544Z,8.30
2023-04-30T07:55:54.099Z,8.50
2023-04-30T07:58:20.894Z,8.70
2023-04-30T08:00:47.943Z,8.80
2023-04-30T08:03:14.607Z,8.90
2023-04-30T08:05:41.649Z,9.00
2023-04-30T08:08:08.290Z,8.90
2023-04-30T08:10:35.268Z,9.00
2023-04-30T08:13:01.918Z,8.90
2023-04-30T08:15:29.446Z,9.20
2023-04-30T08:17:58.504Z,9.40
2023-04-30T08:20:26.171Z,9.40
2023-04-30T08:22:53.251Z,9.50
2023-04-30T08:25:20.158Z,9.70
2023-04-30T08:27:46.762Z,9.70
2023-04-30T08:30:13.398Z,9.60
2023-04-30T08:32:40.302Z,9.40
2023-04-30T08:35:08.192Z,9.30
2023-04-30T08:37:35.554Z,9.50
2023-04-30T08:40:02.135Z,9.50
2023-04-30T08:42:34.089Z,9.70
2023-04-30T08:45:01.456Z,10.00
2023-04-30T08:47:28.199Z,10.20
2023-04-30T08:49:55.940Z,10.40
2023-04-30T08:52:22.875Z,10.60
2023-04-30T08:54:52.074Z,10.40
2023-04-30T08:57:19.259Z,10.00
2023-04-30T08:59:48.848Z,9.90
2023-04-30T09:02:15.482Z,10.00
2023-04-30T09:04:42.414Z,10.10
2023-04-30T09:09:39.646Z,10.10
2023-04-30T09:12:19.966Z,10.30
2023-04-30T09:15:05.167Z,10.30
2023-04-30T09:17:33.199Z,10.20
2023-04-30T09:20:13.157Z,10.30
2023-04-30T09:22:42.502Z,10.50
2023-04-30T09:25:12.741Z,10.60
2023-04-30T09:27:39.315Z,10.40
2023-04-30T09:30:09.728Z,10.40
2023-04-30T09:32:36.467Z,10.50
2023-04-30T09:35:03.526Z,10.60
2023-04-30T09:37:37.754Z,10.60
2023-04-30T09:40:04.755Z,10.70
2023-04-30T09:42:31.773Z,10.80
2023-04-30T09:44:58.441Z,11.00
2023-04-30T09:47:32.041Z,11.00
2023-04-30T09:50:00.098Z,10.90
2023-04-30T09:52:26.919Z,10.70
2023-04-30T09:54:53.538Z,10.70
2023-04-30T09:57:24.350Z,10.90
2023-04-30T09:59:54.010Z,11.70
2023-04-30T10:02:23.733Z,11.40
2023-04-30T10:04:56.089Z,11.60
2023-04-30T10:07:28.695Z,11.50
2023-04-30T10:10:10.029Z,11.40
2023-04-30T10:12:44.926Z,10.90
2023-04-30T10:15:23.737Z,11.00
2023-04-30T10:17:57.779Z,11.30
2023-04-30T10:20:26.585Z,11.60
2023-04-30T10:22:54.401Z,11.50
2023-04-30T10:25:24.666Z,11.70
2023-04-30T10:27:52.385Z,11.50
2023-04-30T10:30:19.028Z,11.40
2023-04-30T10:33:24.053Z,11.60
2023-04-30T10:35:55.848Z,11.70
2023-04-30T10:38:25.156Z,11.70
2023-04-30T10:40:57.180Z,11.80
2023-04-30T10:43:29.380Z,11.90
2023-04-30T10:46:01.289Z,11.90
2023-04-30T10:48:31.777Z,11.80
2023-04-30T10:50:59.528Z,11.80
2023-04-30T10:53:29.737Z,11.80
2023-04-30T10:56:06.763Z,11.80
2023-04-30T10:58:35.945Z,11.90
2023-04-30T11:01:13.692Z,11.80
2023-04-30T11:03:43.254Z,12.00
2023-04-30T11:06:14.670Z,12.10
2023-04-30T11:08:45.829Z,12.40
2023-04-30T11:11:18.676Z,12.50
2023-04-30T11:13:47.113Z,12.40
2023-04-30T11:16:16.644Z,12.20
2023-04-30T11:18:47.556Z,12.20
2023-04-30T11:21:14.663Z,12.20
2023-04-30T11:23:43.384Z,12.20
2023-04-30T11:26:11.025Z,12.20
2023-04-30T11:28:38.352Z,12.40
2023-04-30T11:31:07.629Z,12.20
2023-04-30T11:33:35.227Z,12.40
2023-04-30T11:36:02.331Z,12.60
2023-04-30T11:38:37.846Z,12.60
2023-04-30T11:41:05.442Z,12.70
2023-04-30T11:43:34.699Z,12.70
2023-04-30T11:46:08.641Z,12.70
2023-04-30T11:48:37.596Z,12.60
2023-04-30T11:51:06.898Z,12.80
2023-04-30T11:53:33.755Z,13.20
2023-04-30T11:56:04.344Z,12.80
2023-04-30T11:58:34.776Z,12.70
2023-04-30T12:01:01.930Z,12.50
2023-04-30T12:03:29.428Z,12.60
2023-04-30T12:05:56.122Z,12.70
2023-04-30T12:08:24.069Z,13.00
2023-04-30T12:10:50.700Z,13.10
2023-04-30T12:13:17.212Z,13.20
2023-04-30T12:15:57.122Z,13.60
2023-04-30T12:18:23.802Z,13.70
2023-04-30T12:20:50.978Z,13.90
2023-04-30T12:23:17.703Z,13.90
2023-04-30T12:25:44.364Z,13.80
2023-04-30T12:28:11.859Z,13.40
2023-04-30T12:30:38.601Z,13.50
2023-04-30T12:33:06.080Z,13.50
2023-04-30T12:35:32.723Z,13.90
2023-04-30T12:38:07.542Z,14.20
2023-04-30T12:40:34.615Z,14.10
2023-04-30T12:43:06.220Z,14.30
2023-04-30T12:45:57.909Z,14.20
2023-04-30T12:48:25.308Z,14.50
2023-04-30T12:50:55.791Z,14.80
2023-04-30T12:53:23.911Z,14.90
2023-04-30T12:56:10.009Z,14.70
2023-04-30T12:58:38.615Z,14.70
2023-04-30T13:01:06.191Z,14.70
2023-04-30T13:03:32.901Z,14.90
2023-04-30T13:06:02.692Z,14.70
2023-04-30T13:08:29.825Z,14.20
2023-04-30T13:10:56.551Z,14.30
2023-04-30T13:13:23.183Z,14.40
2023-04-30T13:15:49.838Z,14.70
2023-04-30T13:18:16.620Z,14.80
2023-04-30T13:20:46.667Z,14.80
2023-04-30T13:23:13.836Z,14.80
2023-04-30T13:25:42.068Z,14.80
2023-04-30T13:28:08.904Z,14.70
2023-04-30T13:30:36.142Z,14.80
2023-04-30T13:33:02.980Z,14.70
2023-04-30T13:35:29.967Z,14.80
2023-04-30T13:37:59.347Z,15.00
2023-04-30T13:40:26.353Z,15.60
2023-04-30T13:42:53.110Z,16.20
2023-04-30T13:45:19.760Z,16.70
2023-04-30T13:47:47.172Z,17.10
2023-04-30T13:50:13.804Z,17.40
2023-04-30T13:52:40.459Z,17.70
2023-04-30T13:55:08.417Z,17.70
2023-04-30T13:57:35.001Z,17.30
2023-04-30T14:00:02.416Z,16.50
2023-04-30T14:02:29.385Z,16.00
2023-04-30T14:05:05.234Z,15.80
2023-04-30T14:07:33.113Z,15.50
2023-04-30T14:10:00.000Z,15.80
2023-04-30T14:12:26.701Z,16.40
2023-04-30T14:14:53.350Z,16.80
2023-04-30T14:17:22.047Z,17.00
2023-04-30T14:19:48.757Z,17.00
2023-04-30T14:22:15.604Z,17.00
2023-04-30T14:24:42.567Z,16.60
2023-04-30T14:27:09.219Z,16.80
2023-04-30T14:29:35.884Z,16.60
2023-04-30T14:32:02.524Z,16.80
2023-04-30T14:34:29.263Z,16.80
2023-04-30T14:36:59.379Z,17.10
2023-04-30T14:39:26.791Z,17.50
2023-04-30T14:41:53.806Z,17.70
2023-04-30T14:44:21.680Z,17.90
2023-04-30T14:46:48.317Z,18.40
2023-04-30T14:49:15.511Z,18.70
2023-04-30T14:51:42.101Z,19.10
2023-04-30T14:54:09.792Z,18.90
2023-04-30T14:56:36.436Z,19.00
2023-04-30T14:59:03.328Z,19.20
2023-04-30T15:01:32.170Z,18.90
2023-04-30T15:03:58.839Z,18.70
2023-04-30T15:06:26.117Z,18.70
2023-04-30T15:08:52.825Z,18.40
2023-04-30T15:11:19.401Z,18.60
2023-04-30T15:13:47.503Z,18.50
2023-04-30T15:16:14.214Z,18.90
2023-04-30T15:18:41.309Z,18.00
2023-04-30T15:21:07.985Z,17.60
2023-04-30T15:23:34.729Z,18.30
2023-04-30T15:26:02.362Z,18.70
2023-04-30T15:28:29.005Z,18.80
2023-04-30T15:30:55.918Z,18.30
2023-04-30T15:33:26.428Z,18.30
2023-04-30T15:35:53.552Z,18.30
2023-04-30T15:38:21.442Z,17.70
2023-04-30T15:40:48.340Z,17.50
2023-04-30T15:43:15.603Z,17.20
2023-04-30T15:45:42.566Z,17.10
2023-04-30T15:48:09.572Z,17.40
2023-04-30T15:50:36.383Z,17.90
2023-04-30T15:53:03.436Z,18.20
2023-04-30T15:55:30.091Z,18.90
2023-04-30T15:57:56.946Z,19.40
2023-04-30T16:00:24.818Z,19.20
2023-04-30T16:02:51.426Z,18.70
2023-04-30T16:05:19.307Z,18.60
2023-04-30T16:07:46.887Z,18.80
2023-04-30T16:10:13.596Z,19.00
2023-04-30T16:12:40.191Z,19.20
2023-04-30T16:15:07.737Z,19.70
2023-04-30T16:17:34.385Z,19.90
2023-04-30T16:20:02.469Z,19.60
2023-04-30T16:22:30.102Z,19.50
2023-04-30T16:24:58.610Z,19.50
2023-04-30T16:27:25.563Z,19.70
2023-04-30T16:29:52.166Z,20.10
2023-04-30T16:32:18.748Z,20.70
2023-04-30T16:34:45.756Z,21.00
2023-04-30T16:37:13.565Z,20.80
2023-04-30T16:39:41.982Z,20.50
2023-04-30T16:42:10.779Z,20.30
2023-04-30T16:44:37.421Z,19.90
2023-04-30T16:47:04.069Z,20.30
2023-04-30T16:49:31.226Z,20.50
2023-04-30T16:51:57.846Z,21.30
2023-04-30T16:54:24.477Z,22.10
2023-04-30T16:56:52.120Z,21.80
2023-04-30T16:59:18.804Z,21.90
2023-04-30T17:01:46.023Z,21.90
2023-04-30T17:04:14.134Z,22.20
2023-04-30T17:06:41.150Z,21.90
2023-04-30T17:09:07.786Z,22.10
2023-04-30T17:11:34.442Z,22.70
2023-04-30T17:14:01.059Z,23.10
2023-04-30T17:16:28.093Z,22.80
2023-04-30T17:18:54.755Z,22.20
2023-04-30T17:21:21.400Z,22.00
2023-04-30T17:23:48.171Z,22.20
2023-04-30T17:26:14.716Z,22.70
2023-04-30T17:28:41.341Z,23.10
2023-04-30T17:31:09.235Z,23.20
2023-04-30T17:33:35.828Z,22.90
2023-04-30T17:36:02.517Z,23.00
2023-04-30T17:38:29.122Z,23.00
2023-04-30T17:40:57.532Z,22.90
2023-04-30T17:43:25.729Z,23.00
2023-04-30T17:45:54.071Z,22.80
2023-04-30T17:48:20.717Z,22.80
2023-04-30T17:50:47.410Z,22.80
2023-04-30T17:53:15.471Z,23.20
2023-04-30T17:55:42.089Z,23.10
2023-04-30T17:58:10.137Z,22.90
2023-04-30T18:00:39.195Z,23.10
2023-04-30T18:03:06.386Z,23.30
2023-04-30T18:05:35.425Z,23.60
2023-04-30T18:08:03.833Z,23.20
2023-04-30T18:10:30.458Z,23.20
2023-04-30T18:12:59.828Z,23.30
2023-04-30T18:15:27.302Z,22.90
2023-04-30T18:17:54.360Z,22.80
2023-04-30T18:20:23.456Z,22.50
2023-04-30T18:22:50.113Z,22.30
2023-04-30T18:25:17.675Z,22.20
2023-04-30T18:27:44.572Z,21.60
2023-04-30T18:30:12.535Z,21.00
2023-04-30T18:32:39.428Z,20.70
2023-04-30T18:35:06.433Z,20.40
2023-04-30T18:37:33.012Z,20.20
2023-04-30T18:40:00.432Z,20.30
2023-04-30T18:42:27.089Z,20.60
2023-04-30T18:44:54.232Z,20.60
2023-04-30T18:47:20.929Z,20.50
2023-04-30T18:49:48.739Z,20.20
2023-04-30T18:52:15.405Z,19.90
2023-04-30T18:54:42.559Z,20.00
2023-04-30T18:57:12.297Z,20.50
2023-04-30T18:59:39.592Z,20.60
2023-04-30T19:02:06.490Z,20.60
2023-04-30T19:04:33.205Z,20.70
2023-04-30T19:06:59.766Z,20.80
2023-04-30T19:09:27.303Z,20.80
2023-04-30T19:11:53.971Z,20.70
2023-04-30T19:14:21.815Z,20.70
2023-04-30T19:16:48.596Z,20.40
2023-04-30T19:19:15.934Z,19.80
2023-04-30T19:21:43.618Z,19.50
2023-04-30T19:24:10.170Z,19.30
2023-04-30T19:26:37.789Z,19.60
2023-04-30T19:29:04.446Z,19.90
2023-04-30T19:31:31.073Z,19.80
2023-04-30T19:34:00.101Z,19.30
2023-04-30T19:36:26.875Z,18.80
2023-04-30T19:38:53.559Z,18.20
2023-04-30T19:41:21.175Z,17.70
2023-04-30T19:43:47.926Z,17.20
2023-04-30T19:46:14.605Z,16.70
2023-04-30T19:48:41.206Z,16.20
2023-04-30T19:51:09.154Z,15.90
2023-04-30T19:53:35.703Z,16.00
2023-04-30T19:56:02.454Z,16.30
2023-04-30T19:58:29.918Z,16.70
2023-04-30T20:00:58.250Z,17.00
2023-04-30T20:03:28.745Z,17.20
2023-04-30T20:05:56.067Z,17.30
2023-04-30T20:08:23.235Z,17.30
2023-04-30T20:10:53.576Z,17.30
2023-04-30T20:13:20.978Z,17.30
2023-04-30T20:15:47.834Z,17.30
2023-04-30T20:18:14.468Z,17.20
2023-04-30T20:20:41.419Z,17.20
2023-04-30T20:23:16.926Z,17.40
2023-04-30T20:25:45.395Z,17.40
2023-04-30T20:28:15.552Z,17.30
2023-04-30T20:30:43.304Z,17.20
2023-04-30T20:33:14.580Z,16.90
2023-04-30T20:35:44.119Z,16.70
2023-04-30T20:38:11.855Z,16.70
2023-04-30T20:40:41.412Z,16.80
2023-04-30T20:43:10.202Z,16.90
2023-04-30T20:45:37.711Z,16.80
2023-04-30T20:48:04.854Z,16.80
2023-04-30T20:50:31.568Z,16.80
2023-04-30T20:52:58.225Z,16.90
2023-04-30T20:55:24.907Z,16.90
2023-04-30T20:57:51.489Z,16.90
2023-04-30T21:00:18.598Z,17.00
2023-04-30T21:02:45.522Z,16.80
2023-04-30T21:05:12.252Z,16.80
2023-04-30T21:07:39.075Z,16.70
2023-04-30T21:10:07.664Z,16.60
2023-04-30T21:12:36.835Z,16.70
2023-04-30T21:15:04.399Z,16.50
2023-04-30T21:17:31.023Z,16.30
2023-04-30T21:19:57.807Z,16.10
2023-04-30T21:22:24.701Z,15.80
2023-04-30T21:24:54.280Z,15.70
2023-04-30T21:27:21.548Z,15.80
2023-04-30T21:29:48.591Z,15.90
2023-04-30T21:32:15.191Z,15.90
2023-04-30T21:34:41.998Z,16.00
2023-04-30T21:37:08.593Z,15.80
2023-04-30T21:39:35.434Z,15.70
2023-04-30T21:42:04.318Z,15.70
2023-04-30T21:44:32.760Z,15.80
2023-04-30T21:46:59.925Z,15.70
2023-04-30T21:49:26.930Z,15.90
2023-04-30T21:51:53.788Z,15.60
2023-04-30T21:54:20.617Z,15.50
2023-04-30T21:56:47.196Z,15.40
2023-04-30T21:59:13.765Z,15.20
2023-04-30T22:01:40.399Z,15.00
2023-04-30T22:04:07.095Z,14.90
2023-04-30T22:06:34.732Z,14.90
2023-04-30T22:09:01.594Z,15.00
2023-04-30T22:11:28.728Z,14.80
2023-04-30T22:13:55.353Z,14.70
2023-04-30T22:16:22.085Z,14.80
2023-04-30T22:18:48.717Z,14.80
2023-04-30T22:21:15.561Z,14.60
2023-04-30T22:23:42.180Z,14.30
2023-04-30T22:26:11.156Z,14.10
2023-04-30T22:28:38.115Z,13.70
2023-04-30T22:31:04.883Z,13.70
2023-04-30T22:33:38.030Z,13.90
2023-04-30T22:36:06.069Z,13.90
2023-04-30T22:38:33.024Z,14.00
2023-04-30T22:41:00.470Z,14.00
2023-04-30T22:43:29.247Z,13.70
2023-04-30T22:45:57.549Z,13.70
2023-04-30T22:48:24.837Z,13.50
2023-04-30T22:50:52.360Z,13.30
2023-04-30T22:53:18.921Z,13.40
2023-04-30T22:55:45.625Z,13.30
2023-04-30T22:58:12.811Z,13.20
2023-04-30T23:00:39.429Z,13.10
2023-04-30T23:03:06.126Z,13.10
2023-04-30T23:05:32.729Z,13.10
2023-04-30T23:07:59.349Z,12.90
2023-04-30T23:10:25.868Z,12.90
2023-04-30T23:12:55.353Z,12.90
2023-04-30T23:15:22.613Z,12.90
2023-04-30T23:17:49.212Z,12.80
2023-04-30T23:20:16.052Z,12.90
2023-04-30T23:22:42.596Z,12.90
2023-04-30T23:25:09.687Z,12.80
2023-04-30T23:27:36.398Z,12.80
2023-04-30T23:30:03.430Z,12.80
2023-04-30T23:32:30.119Z,12.80
2023-04-30T23:34:57.083Z,12.70
2023-04-30T23:37:23.776Z,12.60
2023-04-30T23:39:50.346Z,12.60
2023-04-30T23:42:16.913Z,12.50
2023-04-30T23:44:43.599Z,12.50
2023-04-30T23:47:10.307Z,12.40
2023-04-30T23:49:36.826Z,12.40
2023-04-30T23:52:04.784Z,12.40
2023-04-30T23:54:31.368Z,12.40
2023-04-30T23:56:58.568Z,12.40
2023-04-30T23:59:25.757Z,12.40
